Betagas — V2KA8 — position and weather

sailwx.info

Track history (hours):
 
Tides and Currents Weather Stations Pressure Air Temp Water Temp Dewpoint Dewpoint Depression Visibility Wind Speed Wind Dir Waves Ship Positions

Betagas

Last reported at 2016-Sep-25 17:33 UTC. Time now 2016-Sep-25 19:08 UTC.
Position N 49°28' W 000°05'.

Length 114.6 m; beam 15.7 m; draft 7.4 m.

Type: Tanker. MMSI: 304050636.

Date/timePositionNaut miles runAvg speedWind from/ knotsBaromVisibWave heightAir tempDewpointWater temp
2016-Sep-25 17:33N 49°28' W 000°05'0 0.0
2016-Sep-25 16:33N 49°28' W 000°05'0 0.0
2016-Sep-25 15:33N 49°28' W 000°05'0 0.0
2016-Sep-25 14:34N 49°28' W 000°05'0 0.0
2016-Sep-25 12:33N 49°28' W 000°05'0 0.0
2016-Sep-25 11:33N 49°28' W 000°05'0 0.0
2016-Sep-25 10:33N 49°28' W 000°05'0 0.0
2016-Sep-25 09:34N 49°28' W 000°06'0 0.0
2016-Sep-25 07:33N 49°28' W 000°06'0 0.0
2016-Sep-25 04:33N 49°28' W 000°06'0 0.0
2016-Sep-25 00:33N 49°28' W 000°06'0 0.0
2016-Sep-24 22:33N 49°28' W 000°06'0 0.0
2016-Sep-24 21:33N 49°28' W 000°06'0 0.0
2016-Sep-24 19:33N 49°28' W 000°06'0 0.0
2016-Sep-24 18:30N 49°28' W 000°06'0 0.0
2016-Sep-24 17:33N 49°28' W 000°06'0 0.1
2016-Sep-24 16:33N 49°28' W 000°06'0 0.0
2016-Sep-24 14:33N 49°28' W 000°06'1 0.4
2016-Sep-24 12:33N 49°29' W 000°06'2512.7
2016-Sep-24 10:33N 49°54' W 000°08'1514.6
2016-Sep-24 09:34N 50°09' W 000°07'6310.4
2016-Sep-24 03:31N 50°50' E 001°07'1111.6
2016-Sep-24 02:33N 50°57' E 001°21'1413.6
2016-Sep-24 01:33N 51°07' E 001°35'1414.0
2016-Sep-24 00:33N 51°17' E 001°51'6012.1
2016-Sep-23 19:33N 51°25' E 003°27'19 9.5
2016-Sep-23 17:33N 51°24' E 003°57'7 7.3
2016-Sep-23 16:33N 51°23' E 004°09'6 4.0
2016-Sep-23 15:09N 51°21' E 004°17'5 3.2
2016-Sep-23 13:31N 51°16' E 004°20'0 0.0
2016-Sep-23 09:31N 51°16' E 004°20'0 0.0
2016-Sep-23 06:31N 51°16' E 004°20'0 0.0
2016-Sep-23 04:25N 51°16' E 004°20'0 0.0
2016-Sep-23 03:28N 51°16' E 004°20'0 0.0
2016-Sep-23 02:28N 51°16' E 004°20'0 0.0
2016-Sep-23 01:31N 51°16' E 004°20'0 0.0
2016-Sep-23 00:31N 51°16' E 004°20'0 0.0
2016-Sep-22 23:31N 51°16' E 004°20'0 0.0
2016-Sep-22 20:31N 51°16' E 004°20'0 0.0
2016-Sep-22 12:31N 51°16' E 004°20'45 5.6
2016-Sep-22 04:33N 51°24' E 003°10'1514.9
2016-Sep-22 03:33N 51°22' E 002°46'7 2.3
2016-Sep-22 00:29N 51°20' E 002°35'0 0.0
2016-Sep-21 23:29N 51°20' E 002°35'0 0.0
2016-Sep-21 22:29N 51°20' E 002°35'0 0.0
2016-Sep-21 19:29N 51°20' E 002°35'0 0.0
2016-Sep-21 16:29N 51°20' E 002°35'0 0.0
2016-Sep-21 09:29N 51°20' E 002°35'0 0.0
2016-Sep-21 08:29N 51°20' E 002°35'0 0.0
2016-Sep-21 05:29N 51°20' E 002°35'0 0.0
2016-Sep-21 03:29N 51°20' E 002°35'0 0.0
2016-Sep-21 02:29N 51°20' E 002°35'0 0.0
2016-Sep-20 17:29N 51°20' E 002°35'0 0.0
2016-Sep-20 14:29N 51°20' E 002°35'0 0.0
2016-Sep-20 13:29N 51°20' E 002°35'0 0.1
2016-Sep-20 10:29N 51°20' E 002°35'0 0.0
2016-Sep-20 08:29N 51°20' E 002°35'0 0.0
2016-Sep-20 07:29N 51°20' E 002°35'0 0.0
2016-Sep-20 06:29N 51°20' E 002°35'0 0.0
2016-Sep-20 02:29N 51°20' E 002°35'0 0.1
2016-Sep-19 23:29N 51°20' E 002°35'1 0.1
2016-Sep-19 19:33N 51°21' E 002°34'10 9.9
2016-Sep-19 18:33N 51°18' E 002°19'2311.7
2016-Sep-19 16:34N 51°07' E 001°46'7414.1
2016-Sep-19 11:20N 50°22' E 000°14'3317.5
2016-Sep-19 09:28N 50°13' W 000°35'5416.9
2016-Sep-19 06:16N 49°60' W 001°57'5012.5
2016-Sep-19 02:15N 49°42' W 003°10'2112.4
2016-Sep-19 00:33N 49°32' W 003°38'6913.8
2016-Sep-18 19:33N 48°57' W 005°08'5911.9
2016-Sep-18 14:33N 47°57' W 005°07'5914.7
2016-Sep-18 10:33N 47°23' W 003°56'1414.5
2016-Sep-18 09:33N 47°16' W 003°37'63 8.9
2016-Sep-18 02:29N 47°18' W 002°04'0 0.0
2016-Sep-18 01:23N 47°18' W 002°04'0 0.0
2016-Sep-18 00:23N 47°18' W 002°04'0 0.0
2016-Sep-17 22:23N 47°18' W 002°04'0 0.0
2016-Sep-17 21:29N 47°18' W 002°04'0 0.0
2016-Sep-17 20:32N 47°18' W 002°04'0 0.0
2016-Sep-17 19:08N 47°18' W 002°04'0 0.0
2016-Sep-17 13:10N 47°18' W 002°04'0 0.0
2016-Sep-17 12:22N 47°18' W 002°04'0 0.0
2016-Sep-17 09:22N 47°18' W 002°04'0 0.0
2016-Sep-17 07:28N 47°18' W 002°04'0 0.0
2016-Sep-17 05:16N 47°18' W 002°04'0 0.0
2016-Sep-17 04:22N 47°18' W 002°04'0 0.0
2016-Sep-17 00:28N 47°18' W 002°04'0 0.0
2016-Sep-16 17:04N 47°18' W 002°04'3 2.2
2016-Sep-16 15:33N 47°18' W 002°09'15 5.1
2016-Sep-16 12:32N 47°08' W 002°26'0 0.0
2016-Sep-16 09:32N 47°08' W 002°26'0 0.0
2016-Sep-16 07:32N 47°08' W 002°27'0 0.0
2016-Sep-16 03:32N 47°08' W 002°26'0 0.1
2016-Sep-16 02:32N 47°08' W 002°26'0 0.0
2016-Sep-16 00:32N 47°08' W 002°27'0 0.0
2016-Sep-15 22:26N 47°08' W 002°27'0 0.0
2016-Sep-15 21:32N 47°08' W 002°27'0 0.1
2016-Sep-15 20:31N 47°08' W 002°27'0 0.0
2016-Sep-15 18:32N 47°08' W 002°27'  
Track history (hours):
 
Tides and Currents Weather Stations Pressure Air Temp Water Temp Dewpoint Dewpoint Depression Visibility Wind Speed Wind Dir Waves Ship Positions

Betagas

Last reported at 2016-Sep-25 17:33 UTC. Time now 2016-Sep-25 19:08 UTC.
Position N 49°28' W 000°05'.

Length 114.6 m; beam 15.7 m; draft 7.4 m.

Type: Tanker. MMSI: 304050636.

Date/timePositionNaut miles runAvg speedWind from/ knotsBaromVisibWave heightAir tempDewpointWater temp
2016-Sep-25 17:33N 49°28' W 000°05'0 0.0
2016-Sep-25 16:33N 49°28' W 000°05'0 0.0
2016-Sep-25 15:33N 49°28' W 000°05'0 0.0
2016-Sep-25 14:34N 49°28' W 000°05'0 0.0
2016-Sep-25 12:33N 49°28' W 000°05'0 0.0
2016-Sep-25 11:33N 49°28' W 000°05'0 0.0
2016-Sep-25 10:33N 49°28' W 000°05'0 0.0
2016-Sep-25 09:34N 49°28' W 000°06'0 0.0
2016-Sep-25 07:33N 49°28' W 000°06'0 0.0
2016-Sep-25 04:33N 49°28' W 000°06'0 0.0
2016-Sep-25 00:33N 49°28' W 000°06'0 0.0
2016-Sep-24 22:33N 49°28' W 000°06'0 0.0
2016-Sep-24 21:33N 49°28' W 000°06'0 0.0
2016-Sep-24 19:33N 49°28' W 000°06'0 0.0
2016-Sep-24 18:30N 49°28' W 000°06'0 0.0
2016-Sep-24 17:33N 49°28' W 000°06'0 0.1
2016-Sep-24 16:33N 49°28' W 000°06'0 0.0
2016-Sep-24 14:33N 49°28' W 000°06'1 0.4
2016-Sep-24 12:33N 49°29' W 000°06'2512.7
2016-Sep-24 10:33N 49°54' W 000°08'1514.6
2016-Sep-24 09:34N 50°09' W 000°07'6310.4
2016-Sep-24 03:31N 50°50' E 001°07'1111.6
2016-Sep-24 02:33N 50°57' E 001°21'1413.6
2016-Sep-24 01:33N 51°07' E 001°35'1414.0
2016-Sep-24 00:33N 51°17' E 001°51'6012.1
2016-Sep-23 19:33N 51°25' E 003°27'19 9.5
2016-Sep-23 17:33N 51°24' E 003°57'7 7.3
2016-Sep-23 16:33N 51°23' E 004°09'6 4.0
2016-Sep-23 15:09N 51°21' E 004°17'5 3.2
2016-Sep-23 13:31N 51°16' E 004°20'0 0.0
2016-Sep-23 09:31N 51°16' E 004°20'0 0.0
2016-Sep-23 06:31N 51°16' E 004°20'0 0.0
2016-Sep-23 04:25N 51°16' E 004°20'0 0.0
2016-Sep-23 03:28N 51°16' E 004°20'0 0.0
2016-Sep-23 02:28N 51°16' E 004°20'0 0.0
2016-Sep-23 01:31N 51°16' E 004°20'0 0.0
2016-Sep-23 00:31N 51°16' E 004°20'0 0.0
2016-Sep-22 23:31N 51°16' E 004°20'0 0.0
2016-Sep-22 20:31N 51°16' E 004°20'0 0.0
2016-Sep-22 12:31N 51°16' E 004°20'45 5.6
2016-Sep-22 04:33N 51°24' E 003°10'1514.9
2016-Sep-22 03:33N 51°22' E 002°46'7 2.3
2016-Sep-22 00:29N 51°20' E 002°35'0 0.0
2016-Sep-21 23:29N 51°20' E 002°35'0 0.0
2016-Sep-21 22:29N 51°20' E 002°35'0 0.0
2016-Sep-21 19:29N 51°20' E 002°35'0 0.0
2016-Sep-21 16:29N 51°20' E 002°35'0 0.0
2016-Sep-21 09:29N 51°20' E 002°35'0 0.0
2016-Sep-21 08:29N 51°20' E 002°35'0 0.0
2016-Sep-21 05:29N 51°20' E 002°35'0 0.0
2016-Sep-21 03:29N 51°20' E 002°35'0 0.0
2016-Sep-21 02:29N 51°20' E 002°35'0 0.0
2016-Sep-20 17:29N 51°20' E 002°35'0 0.0
2016-Sep-20 14:29N 51°20' E 002°35'0 0.0
2016-Sep-20 13:29N 51°20' E 002°35'0 0.1
2016-Sep-20 10:29N 51°20' E 002°35'0 0.0
2016-Sep-20 08:29N 51°20' E 002°35'0 0.0
2016-Sep-20 07:29N 51°20' E 002°35'0 0.0
2016-Sep-20 06:29N 51°20' E 002°35'0 0.0
2016-Sep-20 02:29N 51°20' E 002°35'0 0.1
2016-Sep-19 23:29N 51°20' E 002°35'1 0.1
2016-Sep-19 19:33N 51°21' E 002°34'10 9.9
2016-Sep-19 18:33N 51°18' E 002°19'2311.7
2016-Sep-19 16:34N 51°07' E 001°46'7414.1
2016-Sep-19 11:20N 50°22' E 000°14'3317.5
2016-Sep-19 09:28N 50°13' W 000°35'5416.9
2016-Sep-19 06:16N 49°60' W 001°57'5012.5
2016-Sep-19 02:15N 49°42' W 003°10'2112.4
2016-Sep-19 00:33N 49°32' W 003°38'6913.8
2016-Sep-18 19:33N 48°57' W 005°08'5911.9
2016-Sep-18 14:33N 47°57' W 005°07'5914.7
2016-Sep-18 10:33N 47°23' W 003°56'1414.5
2016-Sep-18 09:33N 47°16' W 003°37'63 8.9
2016-Sep-18 02:29N 47°18' W 002°04'0 0.0
2016-Sep-18 01:23N 47°18' W 002°04'0 0.0
2016-Sep-18 00:23N 47°18' W 002°04'0 0.0
2016-Sep-17 22:23N 47°18' W 002°04'0 0.0
2016-Sep-17 21:29N 47°18' W 002°04'0 0.0
2016-Sep-17 20:32N 47°18' W 002°04'0 0.0
2016-Sep-17 19:08N 47°18' W 002°04'0 0.0
2016-Sep-17 13:10N 47°18' W 002°04'0 0.0
2016-Sep-17 12:22N 47°18' W 002°04'0 0.0
2016-Sep-17 09:22N 47°18' W 002°04'0 0.0
2016-Sep-17 07:28N 47°18' W 002°04'0 0.0
2016-Sep-17 05:16N 47°18' W 002°04'0 0.0
2016-Sep-17 04:22N 47°18' W 002°04'0 0.0
2016-Sep-17 00:28N 47°18' W 002°04'0 0.0
2016-Sep-16 17:04N 47°18' W 002°04'3 2.2
2016-Sep-16 15:33N 47°18' W 002°09'15 5.1
2016-Sep-16 12:32N 47°08' W 002°26'0 0.0
2016-Sep-16 09:32N 47°08' W 002°26'0 0.0
2016-Sep-16 07:32N 47°08' W 002°27'0 0.0
2016-Sep-16 03:32N 47°08' W 002°26'0 0.1
2016-Sep-16 02:32N 47°08' W 002°26'0 0.0
2016-Sep-16 00:32N 47°08' W 002°27'0 0.0
2016-Sep-15 22:26N 47°08' W 002°27'0 0.0
2016-Sep-15 21:32N 47°08' W 002°27'0 0.1
2016-Sep-15 20:31N 47°08' W 002°27'0 0.0
2016-Sep-15 18:32N 47°08' W 002°27'  

Dump ship's entire track history